createdAt,value
2018-01-16T00:02:25.492Z,47.78
2018-01-16T00:04:51.699Z,47.25
2018-01-16T00:07:18.278Z,44.35
2018-01-16T00:09:44.465Z,31.62
2018-01-16T00:12:11.092Z,39.53
2018-01-16T00:14:37.307Z,45.12
2018-01-16T00:17:03.542Z,48.17
2018-01-16T00:19:29.756Z,48.33
2018-01-16T00:21:56.773Z,46.60
2018-01-16T00:24:22.982Z,44.38
2018-01-16T00:26:49.176Z,47.10
2018-01-16T00:29:15.435Z,43.38
2018-01-16T00:31:41.665Z,46.47
2018-01-16T00:34:07.893Z,49.53
2018-01-16T00:36:34.133Z,46.28
2018-01-16T00:39:00.417Z,47.40
2018-01-16T00:41:26.654Z,45.33
2018-01-16T00:43:52.840Z,47.08
2018-01-16T00:46:19.065Z,49.35
2018-01-16T00:48:45.320Z,50.12
2018-01-16T00:51:11.550Z,51.15
2018-01-16T00:53:37.811Z,51.92
2018-01-16T00:56:04.056Z,51.45
2018-01-16T00:58:30.270Z,50.38
2018-01-16T01:00:56.460Z,46.67
2018-01-16T01:03:22.650Z,51.55
2018-01-16T01:05:49.765Z,49.95
2018-01-16T01:08:16.013Z,50.08
2018-01-16T01:10:42.226Z,49.85
2018-01-16T01:13:08.503Z,50.83
2018-01-16T01:15:34.685Z,48.10
2018-01-16T01:18:00.877Z,50.55
2018-01-16T01:20:27.045Z,48.95
2018-01-16T01:22:53.310Z,49.80
2018-01-16T01:25:19.520Z,48.58
2018-01-16T01:27:45.726Z,52.70
2018-01-16T01:30:11.947Z,51.03
2018-01-16T01:32:38.535Z,50.15
2018-01-16T01:35:04.753Z,49.88
2018-01-16T01:37:30.979Z,50.55
2018-01-16T01:39:57.167Z,50.92
2018-01-16T01:42:23.759Z,53.13
2018-01-16T01:44:49.980Z,52.58
2018-01-16T01:47:16.208Z,57.17
2018-01-16T01:49:42.447Z,60.92
2018-01-16T01:52:08.681Z,61.37
2018-01-16T01:54:34.941Z,60.80
2018-01-16T01:57:01.119Z,59.20
2018-01-16T01:59:28.350Z,62.58
2018-01-16T02:01:54.606Z,60.80
2018-01-16T02:04:21.250Z,62.13
2018-01-16T02:06:47.458Z,62.30
2018-01-16T02:09:13.670Z,62.28
2018-01-16T02:11:39.863Z,65.07
2018-01-16T02:14:06.433Z,64.57
2018-01-16T02:16:33.507Z,65.65
2018-01-16T02:18:59.748Z,65.43
2018-01-16T02:21:25.955Z,67.12
2018-01-16T02:23:52.155Z,65.82
2018-01-16T02:26:18.378Z,71.85
2018-01-16T02:28:44.557Z,67.05
2018-01-16T02:31:10.790Z,68.22
2018-01-16T02:33:37.042Z,68.80
2018-01-16T02:36:03.711Z,69.40
2018-01-16T02:38:29.934Z,72.15
2018-01-16T02:40:56.132Z,70.68
2018-01-16T02:43:22.304Z,77.37
2018-01-16T02:45:49.349Z,76.97
2018-01-16T02:48:15.590Z,81.70
2018-01-16T02:50:41.833Z,73.35
2018-01-16T02:53:08.090Z,77.80
2018-01-16T02:55:34.307Z,78.00
2018-01-16T02:58:00.496Z,78.60
2018-01-16T03:00:26.735Z,75.85
2018-01-16T03:02:52.930Z,87.10
2018-01-16T03:05:19.194Z,81.25
2018-01-16T03:07:46.113Z,73.65
2018-01-16T03:10:12.327Z,77.47
2018-01-16T03:12:38.539Z,72.75
2018-01-16T03:15:04.777Z,75.65
2018-01-16T03:17:31.046Z,76.30
2018-01-16T03:19:57.282Z,71.95
2018-01-16T03:22:24.247Z,74.65
2018-01-16T03:24:50.457Z,74.62
2018-01-16T03:27:16.642Z,72.32
2018-01-16T03:29:43.709Z,67.20
2018-01-16T03:32:09.979Z,69.80
2018-01-16T03:34:36.224Z,69.93
2018-01-16T03:37:02.492Z,95.62
2018-01-16T03:39:28.759Z,75.68
2018-01-16T03:41:54.956Z,211.27
2018-01-16T03:44:21.138Z,178.10
2018-01-16T03:46:47.787Z,220.65
2018-01-16T03:49:13.971Z,108.68
2018-01-16T03:51:40.175Z,50.92
2018-01-16T03:54:06.400Z,62.00
2018-01-16T03:56:32.688Z,30.23
2018-01-16T03:58:59.516Z,169.18
2018-01-16T04:01:26.148Z,10.90
2018-01-16T04:03:52.400Z,5.25
2018-01-16T04:06:18.615Z,14.00
2018-01-16T04:08:44.889Z,11.90
2018-01-16T04:11:11.099Z,3.65
2018-01-16T04:13:37.422Z,3.65
2018-01-16T04:16:04.243Z,3.55
2018-01-16T04:18:30.884Z,3.47
2018-01-16T04:20:57.475Z,5.97
2018-01-16T04:23:23.679Z,2.70
2018-01-16T04:25:49.907Z,4.45
2018-01-16T04:28:16.108Z,3.60
2018-01-16T04:30:42.314Z,3.00
2018-01-16T04:33:08.601Z,3.55
2018-01-16T04:35:34.890Z,2.80
2018-01-16T04:38:01.114Z,1.85
2018-01-16T04:40:27.666Z,8.35
2018-01-16T04:42:53.905Z,3.67
2018-01-16T04:45:20.207Z,2.67
2018-01-16T04:47:46.862Z,18.00
2018-01-16T04:50:13.047Z,9.38
2018-01-16T04:52:39.227Z,5.82
2018-01-16T04:55:05.940Z,21.95
2018-01-16T04:57:32.544Z,9.40
2018-01-16T04:59:58.782Z,19.00
2018-01-16T05:02:24.975Z,152.98
2018-01-16T05:04:51.221Z,33.38
2018-01-16T05:07:18.193Z,44.88
2018-01-16T05:09:44.441Z,120.68
2018-01-16T05:12:10.674Z,99.87
2018-01-16T05:14:36.894Z,22.65
2018-01-16T05:17:03.092Z,81.55
2018-01-16T05:19:29.293Z,12.55
2018-01-16T05:21:55.504Z,5.15
2018-01-16T05:24:21.704Z,9.13
2018-01-16T05:26:48.318Z,24.50
2018-01-16T05:29:14.569Z,13.02
2018-01-16T05:31:40.825Z,8.63
2018-01-16T05:34:07.337Z,2.75
2018-01-16T05:36:33.908Z,3.90
2018-01-16T05:39:00.148Z,3.00
2018-01-16T05:41:26.609Z,2.10
2018-01-16T05:43:52.868Z,1.75
2018-01-16T05:46:19.072Z,3.40
2018-01-16T05:48:45.734Z,5.90
2018-01-16T05:51:11.935Z,11.93
2018-01-16T05:53:38.155Z,4.95
2018-01-16T05:56:04.351Z,11.80
2018-01-16T05:58:30.525Z,4.93
2018-01-16T06:00:57.105Z,15.10
2018-01-16T06:03:23.346Z,4.32
2018-01-16T06:05:50.192Z,5.43
2018-01-16T06:08:16.416Z,2.42
2018-01-16T06:10:42.642Z,2.65
2018-01-16T06:13:08.817Z,10.40
2018-01-16T06:15:35.401Z,2.37
2018-01-16T06:18:01.620Z,3.62
2018-01-16T06:20:27.806Z,76.47
2018-01-16T06:22:54.390Z,72.32
2018-01-16T06:25:20.618Z,72.60
2018-01-16T06:27:47.466Z,73.18
2018-01-16T06:30:14.720Z,83.18
2018-01-16T06:32:40.899Z,72.28
2018-01-16T06:35:07.156Z,62.88
2018-01-16T06:37:33.378Z,58.28
2018-01-16T06:39:59.547Z,48.55
2018-01-16T06:42:25.781Z,43.33
2018-01-16T06:44:51.985Z,42.90
2018-01-16T06:47:18.423Z,41.88
2018-01-16T06:49:44.623Z,41.05
2018-01-16T06:52:11.194Z,41.65
2018-01-16T06:54:37.403Z,40.92
2018-01-16T06:57:03.644Z,22.10
2018-01-16T06:59:29.889Z,33.72
2018-01-16T07:01:56.289Z,35.05
2018-01-16T07:04:22.550Z,27.80
2018-01-16T07:06:48.773Z,40.33
2018-01-16T07:09:15.454Z,33.60
2018-01-16T07:11:41.633Z,35.25
2018-01-16T07:14:08.279Z,30.88
2018-01-16T07:16:34.488Z,25.27
2018-01-16T07:19:00.683Z,37.63
2018-01-16T07:21:26.914Z,40.05
2018-01-16T07:23:53.175Z,43.17
2018-01-16T07:26:19.414Z,33.03
2018-01-16T07:28:45.642Z,41.42
2018-01-16T07:31:11.886Z,42.75
2018-01-16T07:33:38.865Z,40.17
2018-01-16T07:36:05.126Z,42.55
2018-01-16T07:38:31.367Z,41.22
2018-01-16T07:40:57.578Z,42.62
2018-01-16T07:43:23.814Z,41.42
2018-01-16T07:45:50.059Z,42.30
2018-01-16T07:48:16.279Z,42.58
2018-01-16T07:50:42.514Z,42.55
2018-01-16T07:53:08.720Z,46.35
2018-01-16T07:55:34.943Z,43.80
2018-01-16T07:58:01.366Z,44.55
2018-01-16T08:00:27.569Z,45.63
2018-01-16T08:02:53.834Z,56.22
2018-01-16T08:05:20.034Z,62.13
2018-01-16T08:07:46.237Z,59.35
2018-01-16T08:10:14.843Z,59.63
2018-01-16T08:12:41.084Z,60.95
2018-01-16T08:15:07.329Z,59.63
2018-01-16T08:17:33.519Z,59.15
2018-01-16T08:19:59.724Z,59.75
2018-01-16T08:22:25.937Z,61.50
2018-01-16T08:24:52.168Z,62.67
2018-01-16T08:27:18.366Z,61.60
2018-01-16T08:29:44.574Z,54.67
2018-01-16T08:32:10.808Z,50.35
2018-01-16T08:34:37.002Z,51.90
2018-01-16T08:37:03.208Z,52.70
2018-01-16T08:39:29.403Z,49.40
2018-01-16T08:41:55.620Z,49.97
2018-01-16T08:44:21.807Z,49.78
2018-01-16T08:46:48.382Z,51.70
2018-01-16T08:49:14.574Z,57.65
2018-01-16T08:51:41.204Z,44.65
2018-01-16T08:54:07.395Z,46.08
2018-01-16T08:56:33.598Z,40.67
2018-01-16T08:58:59.828Z,29.48
2018-01-16T09:01:26.025Z,14.38
2018-01-16T09:03:52.639Z,11.32
2018-01-16T09:06:18.817Z,3.22
2018-01-16T09:08:44.998Z,2.17
2018-01-16T09:11:11.967Z,2.25
2018-01-16T09:13:38.137Z,2.37
2018-01-16T09:16:04.359Z,2.70
2018-01-16T09:18:30.542Z,2.65
2018-01-16T09:20:58.077Z,2.40
2018-01-16T09:23:24.292Z,2.15
2018-01-16T09:25:50.513Z,1.50
2018-01-16T09:28:16.734Z,3.17
2018-01-16T09:30:42.935Z,17.77
2018-01-16T09:33:09.191Z,25.42
2018-01-16T09:35:35.401Z,24.67
2018-01-16T09:38:01.601Z,20.67
2018-01-16T09:40:27.806Z,11.82
2018-01-16T09:42:53.992Z,6.78
2018-01-16T09:45:20.195Z,2.70
2018-01-16T09:47:46.674Z,4.22
2018-01-16T09:50:12.892Z,8.30
2018-01-16T09:52:39.089Z,4.53
2018-01-16T09:55:05.328Z,24.87
2018-01-16T09:57:31.522Z,32.78
2018-01-16T09:59:57.714Z,39.47
2018-01-16T10:02:23.955Z,38.20
2018-01-16T10:04:50.189Z,43.78
2018-01-16T10:07:16.741Z,44.83
2018-01-16T10:09:42.917Z,43.78
2018-01-16T10:12:09.122Z,49.03
2018-01-16T10:14:35.352Z,42.97
2018-01-16T10:17:01.550Z,41.85
2018-01-16T10:19:28.158Z,43.58
2018-01-16T10:21:54.362Z,44.78
2018-01-16T10:24:20.564Z,61.75
2018-01-16T10:26:46.792Z,46.28
2018-01-16T10:29:12.999Z,47.88
2018-01-16T10:31:39.264Z,45.22
2018-01-16T10:34:05.460Z,43.67
2018-01-16T10:36:31.647Z,43.75
2018-01-16T10:38:57.851Z,47.67
2018-01-16T10:41:24.041Z,46.85
2018-01-16T10:43:50.299Z,45.97
2018-01-16T10:46:16.520Z,46.45
2018-01-16T10:48:42.698Z,57.80
2018-01-16T10:51:08.912Z,60.50
2018-01-16T10:53:35.119Z,56.35
2018-01-16T10:56:01.322Z,49.10
2018-01-16T10:58:27.569Z,46.55
2018-01-16T11:00:53.816Z,44.85
2018-01-16T11:03:20.663Z,41.60
2018-01-16T11:05:46.890Z,42.42
2018-01-16T11:08:13.078Z,32.88
2018-01-16T11:10:39.267Z,39.40
2018-01-16T11:13:05.858Z,43.47
2018-01-16T11:15:32.042Z,44.35
2018-01-16T11:17:58.631Z,44.15
2018-01-16T11:20:24.960Z,48.90
2018-01-16T11:22:51.189Z,44.25
2018-01-16T11:25:17.388Z,42.03
2018-01-16T11:27:43.590Z,43.78
2018-01-16T11:30:10.169Z,43.80
2018-01-16T11:32:36.381Z,48.15
2018-01-16T11:35:02.586Z,48.08
2018-01-16T11:37:28.879Z,41.70
2018-01-16T11:39:55.146Z,44.25
2018-01-16T11:42:21.939Z,45.95
2018-01-16T11:44:50.192Z,43.67
2018-01-16T11:47:18.120Z,44.60
2018-01-16T11:49:44.787Z,22.70
2018-01-16T11:52:11.089Z,38.55
2018-01-16T11:54:40.679Z,27.73
2018-01-16T11:57:08.424Z,40.63
2018-01-16T11:59:34.904Z,36.35
2018-01-16T12:02:01.111Z,27.27
2018-01-16T12:04:27.383Z,27.13
2018-01-16T12:06:53.639Z,7.10
2018-01-16T12:09:19.870Z,18.85
2018-01-16T12:11:46.091Z,23.85
2018-01-16T12:14:12.278Z,31.58
2018-01-16T12:16:40.120Z,23.77
2018-01-16T12:19:06.381Z,39.13
2018-01-16T12:21:33.241Z,39.08
2018-01-16T12:23:59.555Z,40.55
2018-01-16T12:26:25.981Z,41.75
2018-01-16T12:28:53.228Z,41.78
2018-01-16T12:31:19.500Z,45.47
2018-01-16T12:33:46.869Z,44.75
2018-01-16T12:36:14.673Z,45.20
2018-01-16T12:38:42.809Z,45.67
2018-01-16T12:41:10.422Z,59.20
2018-01-16T12:43:36.982Z,61.97
2018-01-16T12:46:03.589Z,54.50
2018-01-16T12:48:31.215Z,56.20
2018-01-16T12:50:59.814Z,59.22
2018-01-16T12:53:26.150Z,56.42
2018-01-16T12:55:52.420Z,57.38
2018-01-16T12:58:18.699Z,61.25
2018-01-16T13:00:45.270Z,57.05
2018-01-16T13:03:11.521Z,47.88
2018-01-16T13:05:37.718Z,47.35
2018-01-16T13:08:03.918Z,43.80
2018-01-16T13:10:30.502Z,47.33
2018-01-16T13:12:57.742Z,53.25
2018-01-16T13:15:23.977Z,56.33
2018-01-16T13:17:50.837Z,61.20
2018-01-16T13:20:17.089Z,62.05
2018-01-16T13:22:43.298Z,71.18
2018-01-16T13:25:09.522Z,65.45
2018-01-16T13:27:35.759Z,68.87
2018-01-16T13:30:01.947Z,66.35
2018-01-16T13:32:28.181Z,67.03
2018-01-16T13:34:54.387Z,71.35
2018-01-16T13:37:20.630Z,59.63
2018-01-16T18:36:28.675Z,79.22
2018-01-16T18:38:54.919Z,86.10
2018-01-16T18:41:21.192Z,71.62
2018-01-16T18:43:48.364Z,68.28
2018-01-16T18:46:14.605Z,71.00
2018-01-16T18:48:41.004Z,74.10
2018-01-16T18:51:07.256Z,78.25
2018-01-16T18:53:34.538Z,72.53
2018-01-16T18:56:01.011Z,71.57
2018-01-16T18:58:27.676Z,84.60
2018-01-16T19:00:55.157Z,62.17
2018-01-16T19:03:21.381Z,78.12
2018-01-16T19:05:47.681Z,78.97
2018-01-16T19:08:13.947Z,68.82
2018-01-16T19:10:40.207Z,72.87
2018-01-16T19:13:06.494Z,73.43
2018-01-16T19:15:32.855Z,72.78
2018-01-16T19:17:59.133Z,72.15
2018-01-16T19:20:25.840Z,71.90
2018-01-16T19:22:53.037Z,72.10
2018-01-16T19:25:19.339Z,68.62
2018-01-16T19:27:45.555Z,74.47
2018-01-16T19:30:11.865Z,70.32
2018-01-16T19:32:38.977Z,69.80
2018-01-16T19:35:05.238Z,80.00
2018-01-16T19:37:31.543Z,36.20
2018-01-16T19:39:57.813Z,7.18
2018-01-16T19:42:24.123Z,4.50
2018-01-16T19:44:50.393Z,8.70
2018-01-16T19:47:16.687Z,5.12
2018-01-16T19:55:49.177Z,2.40
2018-01-16T19:58:15.929Z,2.60
2018-01-16T20:00:42.627Z,2.30
2018-01-16T20:03:09.002Z,3.45
2018-01-16T20:05:35.720Z,5.53
2018-01-16T20:08:02.188Z,7.70
2018-01-16T20:10:28.923Z,6.65
2018-01-16T20:12:55.253Z,12.25
2018-01-16T20:15:22.026Z,14.27
2018-01-16T20:17:48.734Z,96.65
2018-01-16T20:20:15.186Z,75.25
2018-01-16T20:22:41.541Z,34.90
2018-01-16T20:25:08.220Z,64.62
2018-01-16T20:27:34.610Z,24.12
2018-01-16T20:30:01.324Z,81.00
2018-01-16T20:32:27.637Z,23.92
2018-01-16T20:34:54.005Z,10.57
2018-01-16T20:37:20.357Z,11.95
2018-01-16T20:39:46.753Z,7.65
2018-01-16T20:42:13.101Z,12.32
2018-01-16T20:44:39.521Z,7.68
2018-01-16T20:47:05.899Z,9.30
2018-01-16T20:49:32.226Z,8.50
2018-01-16T20:51:58.546Z,4.30
2018-01-16T20:54:24.871Z,10.07
2018-01-16T20:56:51.392Z,8.15
2018-01-16T20:59:17.789Z,23.42
2018-01-16T21:01:44.156Z,11.70
2018-01-16T21:04:11.942Z,22.48
2018-01-16T21:06:38.371Z,10.65
2018-01-16T21:09:04.814Z,24.42
2018-01-16T21:11:31.656Z,14.90
2018-01-16T21:13:58.085Z,15.30
2018-01-16T21:16:25.710Z,21.25
2018-01-16T21:18:59.113Z,54.17
2018-01-16T21:21:25.835Z,139.20
2018-01-16T21:23:52.183Z,23.20
2018-01-16T21:26:18.485Z,40.20
2018-01-16T21:28:44.821Z,43.30
2018-01-16T21:31:11.162Z,61.15
2018-01-16T21:33:37.450Z,86.00
2018-01-16T21:36:03.743Z,8.35
2018-01-16T21:38:30.081Z,19.02
2018-01-16T21:40:56.401Z,5.75
2018-01-16T21:43:22.729Z,6.40
2018-01-16T21:45:49.461Z,10.02
2018-01-16T21:48:16.187Z,3.80
2018-01-16T21:50:42.586Z,6.47
2018-01-16T21:53:08.848Z,5.62
2018-01-16T21:55:35.901Z,4.10
2018-01-16T21:58:02.302Z,36.05
2018-01-16T22:00:28.667Z,10.02
2018-01-16T22:02:55.151Z,21.67
2018-01-16T22:05:21.898Z,78.57
2018-01-16T22:07:48.713Z,134.37
2018-01-16T22:10:14.986Z,46.97
2018-01-16T22:12:41.681Z,123.53
2018-01-16T22:15:09.073Z,29.70
2018-01-16T22:17:35.488Z,78.45
2018-01-16T22:20:01.757Z,76.25
2018-01-16T22:22:28.168Z,86.15
2018-01-16T22:24:54.475Z,82.12
2018-01-16T22:27:20.789Z,76.00
2018-01-16T22:29:47.075Z,69.60
2018-01-16T22:32:13.348Z,68.55
2018-01-16T22:34:40.022Z,69.25
2018-01-16T22:37:06.284Z,66.85
2018-01-16T22:39:32.571Z,67.25
2018-01-16T22:41:59.191Z,67.87
2018-01-16T22:44:25.442Z,66.65
2018-01-16T22:46:52.062Z,73.95
2018-01-16T22:49:18.352Z,81.53
2018-01-16T22:51:44.682Z,76.90
2018-01-16T22:54:10.945Z,75.82
2018-01-16T22:56:37.252Z,74.20
2018-01-16T22:59:03.517Z,76.00
2018-01-16T23:01:29.804Z,75.80
2018-01-16T23:03:56.474Z,78.03
2018-01-16T23:06:22.742Z,78.97
2018-01-16T23:08:49.006Z,87.95
2018-01-16T23:11:15.692Z,87.12
2018-01-16T23:13:41.936Z,84.32
2018-01-16T23:16:08.222Z,80.50
2018-01-16T23:18:34.880Z,87.88
2018-01-16T23:21:01.129Z,86.60
2018-01-16T23:23:27.371Z,80.80
2018-01-16T23:25:53.629Z,81.40
2018-01-16T23:28:19.893Z,77.12
2018-01-16T23:30:46.152Z,73.87
2018-01-16T23:33:13.780Z,76.30
2018-01-16T23:35:42.109Z,75.60
2018-01-16T23:38:08.359Z,76.18
2018-01-16T23:40:34.653Z,75.15
2018-01-16T23:43:00.951Z,72.53
2018-01-16T23:45:27.395Z,68.47
2018-01-16T23:47:53.702Z,72.32
2018-01-16T23:50:20.018Z,70.25
2018-01-16T23:52:46.672Z,72.57
2018-01-16T23:55:12.937Z,67.80
2018-01-16T23:57:39.243Z,69.70
